Terminal Aerodrome Forecast
Issued by NWS

Home | Current Version | Previous Version | Text Only | Print | Product List | Glossary On
Versions: 1 2 3 4 5 6 7 8 9 10 11 12 13
000
FTAK31 PAJN 011100
TAFASI
TAF
PASI 011120Z 0112/0212 07005KT P6SM BKN150 WS020/07025KT
     FM011500 07008KT P6SM SCT200 WS020/07030KT
     FM012000 07012KT P6SM SCT200 WS020/07025KT
     FM020600 07011KT P6SM SCT190=

USA.gov is the U.S. government's official web portal to all federal, state and local government web resources and services.